Time;durP1;ratioP1;P1;durP2;ratioP2;P2;SDS_P1;SDS_P2;PMS_P1;PMS_P2;Temp;Humidity;BMP_temperature;BMP_pressure;BME280_temperature;BME280_humidity;BME280_pressure;Samples;Min_cycle;Max_cycle;Signal;HPM_P1;HPM_P2
2023/04/25 00:01:04;;;;;;;;;2.25;1.00;;;;;22.74;37.55;100510.44;5078000;27;48155;-69
2023/04/25 00:03:31;;;;;;;;;1.25;0.25;;;;;22.84;37.78;100523.84;5076505;27;45307;-68
2023/04/25 00:05:57;;;;;;;;;3.00;1.00;;;;;22.79;37.54;100510.03;5057533;28;45387;-68
2023/04/25 00:08:24;;;;;;;;;1.50;1.25;;;;;22.82;37.43;100512.47;5070642;28;45430;-68
2023/04/25 00:10:50;;;;;;;;;0.25;0.25;;;;;22.80;37.62;100509.91;5074728;28;45568;-68
2023/04/25 00:13:17;;;;;;;;;2.25;2.00;;;;;22.80;37.61;100512.59;5075017;27;45425;-68
2023/04/25 00:15:42;;;;;;;;;0.25;0.25;;;;;22.79;37.30;100510.91;5070772;27;45307;-68
2023/04/25 00:18:08;;;;;;;;;0.25;0.25;;;;;22.81;37.71;100508.97;5076679;27;45517;-68
2023/04/25 00:20:35;;;;;;;;;1.50;1.25;;;;;22.81;37.54;100511.63;5078085;28;46996;-68
2023/04/25 00:23:00;;;;;;;;;1.00;0.25;;;;;22.81;37.73;100506.28;5076148;28;45800;-68
2023/04/25 00:25:26;;;;;;;;;2.00;2.00;;;;;22.79;37.37;100508.25;5074410;27;62268;-68
2023/04/25 00:27:51;;;;;;;;;1.50;1.50;;;;;22.80;37.32;100509.91;5060902;28;45675;-68
2023/04/25 00:30:16;;;;;;;;;3.00;2.25;;;;;22.78;37.68;100503.88;5075783;28;67102;-68
2023/04/25 00:32:42;;;;;;;;;2.50;1.25;;;;;22.74;37.61;100494.44;5075176;28;62162;-68
2023/04/25 00:35:08;;;;;;;;;1.75;1.75;;;;;22.78;37.83;100511.03;5081496;27;45341;-68
2023/04/25 00:37:33;;;;;;;;;1.25;1.25;;;;;22.77;37.66;100507.53;5060355;28;45432;-68
2023/04/25 00:39:59;;;;;;;;;0.50;0.50;;;;;22.79;37.57;100507.38;5062894;27;47755;-69
2023/04/25 00:42:25;;;;;;;;;3.25;0.75;;;;;22.80;37.26;100504.59;5075712;27;45460;-68
2023/04/25 00:44:52;;;;;;;;;1.50;1.50;;;;;22.75;37.59;100502.31;5057306;28;45475;-68
2023/04/25 00:47:17;;;;;;;;;1.25;1.25;;;;;22.75;37.83;100510.31;5065787;28;45902;-68
2023/04/25 00:49:43;;;;;;;;;2.25;2.25;;;;;22.78;37.35;100514.53;5080927;27;47302;-68
2023/04/25 00:52:09;;;;;;;;;1.50;0.25;;;;;22.78;37.15;100516.38;5076321;27;45346;-68
2023/04/25 00:54:34;;;;;;;;;1.00;1.00;;;;;22.78;37.25;100516.38;5070842;27;46192;-68
2023/04/25 00:57:00;;;;;;;;;1.25;1.25;;;;;22.76;37.73;100516.50;5076634;27;45302;-68
2023/04/25 00:59:27;;;;;;;;;2.00;1.25;;;;;22.77;37.49;100514.66;5074396;27;45632;-68
2023/04/25 01:01:52;;;;;;;;;0.75;0.75;;;;;22.75;37.66;100514.78;5083315;27;45517;-68
2023/04/25 01:04:17;;;;;;;;;1.25;1.25;;;;;22.76;37.38;100511.16;5058646;28;45803;-68
2023/04/25 01:06:43;;;;;;;;;1.25;0.25;;;;;22.75;37.69;100509.44;5086601;27;61389;-68
2023/04/25 01:09:09;;;;;;;;;1.00;1.00;;;;;22.75;37.68;100510.31;5060125;27;46851;-68
2023/04/25 01:11:34;;;;;;;;;1.00;1.00;;;;;22.77;37.45;100517.31;5077419;28;45380;-68
2023/04/25 01:14:01;;;;;;;;;1.75;1.75;;;;;22.74;37.60;100505.94;5076618;28;45344;-68
2023/04/25 01:16:27;;;;;;;;;2.75;1.00;;;;;22.77;37.72;100512.00;5059429;28;45498;-68
2023/04/25 01:18:54;;;;;;;;;1.25;1.25;;;;;22.71;37.52;100500.00;5055903;28;47253;-68
2023/04/25 01:21:20;;;;;;;;;0.75;0.50;;;;;22.74;37.51;100500.59;5079017;27;45777;-68
2023/04/25 01:23:46;;;;;;;;;0.50;0.50;;;;;22.75;37.42;100502.31;5073413;28;45833;-68
2023/04/25 01:26:12;;;;;;;;;3.00;2.00;;;;;22.74;37.72;100499.75;5058116;28;45820;-68
2023/04/25 01:28:42;;;;;;;;;0.00;0.00;;;;;22.74;37.36;100503.28;5053591;28;47023;-68
2023/04/25 01:31:07;;;;;;;;;0.75;0.25;;;;;22.73;37.57;100496.25;5055027;28;45305;-68
2023/04/25 01:33:33;;;;;;;;;2.00;1.00;;;;;22.74;37.23;100500.59;5078044;27;45302;-68
2023/04/25 01:35:58;;;;;;;;;0.75;0.25;;;;;22.69;37.09;100497.47;5064705;27;45730;-68
2023/04/25 01:38:24;;;;;;;;;2.00;0.75;;;;;22.68;37.12;100505.59;5078057;27;50248;-68
2023/04/25 01:40:51;;;;;;;;;1.00;1.00;;;;;22.74;37.02;100510.44;5067100;28;45383;-68
2023/04/25 01:43:16;;;;;;;;;1.50;1.25;;;;;22.70;37.16;100506.31;5079131;27;45349;-68
2023/04/25 01:45:42;;;;;;;;;2.00;1.00;;;;;22.69;37.30;100504.63;5077747;27;45837;-68
2023/04/25 01:48:12;;;;;;;;;3.00;1.00;;;;;22.69;37.32;100497.47;5080732;27;45392;-68
2023/04/25 01:50:39;;;;;;;;;0.75;0.75;;;;;22.72;37.39;100509.72;5079724;28;45381;-68
2023/04/25 01:53:05;;;;;;;;;2.00;0.50;;;;;22.67;37.02;100503.91;5086940;27;45326;-68
2023/04/25 01:55:30;;;;;;;;;1.00;1.00;;;;;22.68;37.25;100500.25;5087333;27;45438;-68
2023/04/25 01:57:56;;;;;;;;;1.75;1.00;;;;;22.68;36.96;100508.25;5079198;27;46394;-68
2023/04/25 02:00:21;;;;;;;;;2.00;0.25;;;;;22.68;37.13;100503.78;5081279;27;45268;-68
2023/04/25 02:02:48;;;;;;;;;3.00;1.50;;;;;22.67;37.03;100506.56;5075296;27;45402;-68
2023/04/25 02:05:13;;;;;;;;;0.50;0.50;;;;;22.68;37.00;100508.25;5076836;27;45320;-68
2023/04/25 02:07:38;;;;;;;;;0.25;0.25;;;;;22.65;37.30;100509.38;5075108;27;74038;-68
2023/04/25 02:10:04;;;;;;;;;1.75;1.75;;;;;22.66;37.17;100510.19;5079154;27;71902;-68
2023/04/25 02:12:30;;;;;;;;;1.25;1.25;;;;;22.69;37.00;100518.81;5049537;27;45413;-68
2023/04/25 02:14:56;;;;;;;;;1.00;1.00;;;;;22.66;37.41;100516.38;5076310;27;45323;-68
2023/04/25 02:17:21;;;;;;;;;1.50;1.25;;;;;22.65;37.35;100512.03;5086304;27;46822;-68
2023/04/25 02:19:47;;;;;;;;;1.00;1.00;;;;;22.67;37.16;100520.75;5082735;27;45233;-68
2023/04/25 02:22:12;;;;;;;;;0.25;0.25;;;;;22.64;36.90;100514.81;5084019;27;45561;-68
2023/04/25 02:24:38;;;;;;;;;0.25;0.25;;;;;22.64;37.28;100514.81;5080097;27;45458;-68
2023/04/25 02:27:03;;;;;;;;;1.50;1.50;;;;;22.67;36.90;100522.59;5077288;27;46778;-68
2023/04/25 02:29:29;;;;;;;;;0.50;0.25;;;;;22.66;37.17;100519.03;5077231;27;47017;-68
2023/04/25 02:31:55;;;;;;;;;1.00;1.00;;;;;22.65;36.91;100513.88;5079983;27;54638;-68
2023/04/25 02:34:20;;;;;;;;;2.00;2.00;;;;;22.66;36.89;100512.88;5060385;27;45511;-68
2023/04/25 02:36:45;;;;;;;;;0.25;0.25;;;;;22.64;37.32;100513.00;5061248;28;57259;-68
2023/04/25 02:39:11;;;;;;;;;0.75;0.75;;;;;22.64;36.98;100512.16;5059761;28;54088;-68
2023/04/25 02:41:36;;;;;;;;;2.25;2.00;;;;;22.65;37.22;100517.38;5067680;27;45378;-68
2023/04/25 02:44:02;;;;;;;;;1.00;0.50;;;;;22.64;36.85;100522.81;5074276;27;45718;-68
2023/04/25 02:46:27;;;;;;;;;3.00;2.00;;;;;22.64;36.83;100525.50;5077922;27;68769;-68
2023/04/25 02:48:52;;;;;;;;;1.25;1.25;;;;;22.64;36.92;100531.66;5056493;27;45466;-68
2023/04/25 02:51:18;;;;;;;;;5.50;1.50;;;;;22.63;37.22;100524.66;5078331;27;69207;-67
2023/04/25 02:53:44;;;;;;;;;2.75;1.00;;;;;22.63;36.99;100519.31;5076123;28;68442;-68
2023/04/25 02:56:09;;;;;;;;;0.50;0.50;;;;;22.63;37.26;100523.78;5075945;27;70405;-68
2023/04/25 02:58:34;;;;;;;;;1.00;1.00;;;;;22.61;36.77;100533.72;5075952;28;67411;-68
2023/04/25 03:01:00;;;;;;;;;2.50;1.75;;;;;22.60;37.07;100527.56;5076639;28;71258;-67
2023/04/25 03:03:25;;;;;;;;;5.00;2.00;;;;;22.61;36.91;100531.06;5075623;27;45527;-68
2023/04/25 03:05:51;;;;;;;;;0.50;0.50;;;;;22.60;37.20;100529.38;5073311;27;47001;-68
2023/04/25 03:08:17;;;;;;;;;1.50;1.50;;;;;22.60;36.87;100529.38;5076106;27;45318;-68
2023/04/25 03:10:43;;;;;;;;;1.75;1.00;;;;;22.59;36.85;100525.84;5059830;28;45438;-68
2023/04/25 03:13:09;;;;;;;;;1.00;1.00;;;;;22.60;37.14;100518.72;5074970;28;45436;-68
2023/04/25 03:15:35;;;;;;;;;1.25;1.25;;;;;22.62;36.78;100524.78;5069088;27;48053;-68
2023/04/25 03:18:00;;;;;;;;;1.75;1.00;;;;;22.61;36.58;100526.59;5092015;27;45595;-68
2023/04/25 03:20:26;;;;;;;;;3.00;1.50;;;;;22.59;37.08;100523.19;5080679;27;67631;-68
2023/04/25 03:22:51;;;;;;;;;2.50;2.00;;;;;22.60;37.14;100522.22;5075815;28;45586;-68
2023/04/25 03:25:17;;;;;;;;;1.25;1.25;;;;;22.58;36.76;100524.19;5061528;27;46472;-68
2023/04/25 03:27:42;;;;;;;;;1.25;1.00;;;;;22.58;37.18;100529.50;5061356;28;51099;-68
2023/04/25 03:30:08;;;;;;;;;0.50;0.50;;;;;22.60;36.79;100527.56;5084432;27;45469;-68
2023/04/25 03:32:34;;;;;;;;;1.25;1.25;;;;;22.59;37.16;100523.19;5075604;28;47710;-68
2023/04/25 03:34:59;;;;;;;;;2.00;2.00;;;;;22.60;37.04;100526.72;5081622;27;45645;-68
2023/04/25 03:37:25;;;;;;;;;1.75;1.75;;;;;22.59;36.99;100517.00;5080722;27;55153;-68
2023/04/25 03:39:50;;;;;;;;;3.25;2.00;;;;;22.57;37.02;100519.78;5076883;28;45381;-68
2023/04/25 03:42:16;;;;;;;;;2.00;2.00;;;;;22.59;36.95;100523.19;5061903;28;45620;-68
2023/04/25 03:44:41;;;;;;;;;3.00;2.00;;;;;22.58;37.31;100526.00;5076771;27;45420;-68
2023/04/25 03:47:06;;;;;;;;;1.25;1.25;;;;;22.57;36.63;100527.81;5078226;27;65862;-68
2023/04/25 03:49:33;;;;;;;;;1.00;1.00;;;;;22.59;37.18;100533.84;5055810;28;45522;-68
2023/04/25 03:52:00;;;;;;;;;0.50;0.50;;;;;22.56;37.04;100526.97;5072300;27;45473;-68
2023/04/25 03:54:25;;;;;;;;;2.00;2.00;;;;;22.56;36.98;100526.97;5078218;27;45332;-67
2023/04/25 03:56:50;;;;;;;;;3.50;1.00;;;;;22.56;37.23;100529.63;5072102;27;71354;-68
2023/04/25 03:59:15;;;;;;;;;2.25;1.75;;;;;22.55;37.22;100525.25;5078328;27;59712;-68
2023/04/25 04:01:41;;;;;;;;;2.00;2.00;;;;;22.56;36.91;100531.47;5056996;28;71349;-68
2023/04/25 04:04:06;;;;;;;;;3.00;3.00;;;;;22.55;36.72;100532.41;5078053;27;47286;-68
2023/04/25 04:06:32;;;;;;;;;0.25;0.25;;;;;22.54;36.59;100523.56;5079217;27;49752;-68
2023/04/25 04:08:57;;;;;;;;;1.25;1.25;;;;;22.57;36.75;100535.81;5076662;27;45285;-68
2023/04/25 04:11:22;;;;;;;;;3.25;1.25;;;;;22.55;37.01;100535.09;5071574;27;67892;-68
2023/04/25 04:13:48;;;;;;;;;4.00;1.25;;;;;22.54;36.71;100534.25;5069905;27;69354;-68
2023/04/25 04:16:13;;;;;;;;;1.75;0.25;;;;;22.55;36.58;100532.41;5060914;28;45456;-68
2023/04/25 04:18:38;;;;;;;;;1.25;1.25;;;;;22.53;36.71;100535.19;5074311;27;56210;-68
2023/04/25 04:21:04;;;;;;;;;4.00;1.25;;;;;22.56;37.03;100545.63;5081818;27;64257;-68
2023/04/25 04:23:29;;;;;;;;;4.00;2.00;;;;;22.55;37.16;100546.59;5075339;27;45416;-68
2023/04/25 04:25:55;;;;;;;;;3.00;2.25;;;;;22.55;37.01;100548.41;5075309;27;45523;-67
2023/04/25 04:28:21;;;;;;;;;1.00;1.00;;;;;22.53;36.71;100545.03;5066062;28;45374;-68
2023/04/25 04:30:47;;;;;;;;;1.00;1.00;;;;;22.55;36.61;100551.09;5083096;27;45378;-68
2023/04/25 04:33:12;;;;;;;;;0.25;0.25;;;;;22.54;36.57;100560.91;5074337;28;45276;-68
2023/04/25 04:35:38;;;;;;;;;1.25;1.25;;;;;22.54;36.55;100560.03;5076510;27;45365;-68
2023/04/25 04:38:03;;;;;;;;;2.00;0.75;;;;;22.54;37.09;100562.72;5072728;28;45429;-67
2023/04/25 04:40:31;;;;;;;;;0.25;0.25;;;;;22.54;36.77;100560.03;5066188;28;45568;-67
2023/04/25 04:42:57;;;;;;;;;1.25;0.25;;;;;22.56;37.01;100571.47;5044654;28;47295;-68
2023/04/25 04:45:22;;;;;;;;;2.00;2.00;;;;;22.55;37.00;100578.59;5071349;27;45433;-67
2023/04/25 04:47:48;;;;;;;;;1.00;0.50;;;;;22.54;36.97;100576.03;5074483;28;45318;-67
2023/04/25 04:50:14;;;;;;;;;1.50;1.50;;;;;22.53;37.15;100577.88;5070859;28;45438;-68
2023/04/25 04:52:40;;;;;;;;;1.25;0.25;;;;;22.54;36.93;100579.59;5076475;27;47245;-68
2023/04/25 04:55:06;;;;;;;;;4.75;3.00;;;;;22.53;36.65;100580.53;5076475;27;45462;-68
2023/04/25 04:57:32;;;;;;;;;1.25;1.25;;;;;22.52;36.88;100575.31;5073335;27;45516;-67
2023/04/25 04:59:58;;;;;;;;;1.00;1.00;;;;;22.55;36.85;100591.09;5076183;28;45446;-67
2023/04/25 05:02:23;;;;;;;;;1.75;0.50;;;;;22.53;36.72;100590.38;5077460;27;45490;-67
2023/04/25 05:04:50;;;;;;;;;1.25;0.75;;;;;22.51;37.13;100603.81;5073057;27;45577;-68
2023/04/25 05:07:15;;;;;;;;;1.75;1.25;;;;;22.52;36.66;100596.66;5077241;27;45535;-68
2023/04/25 05:09:40;;;;;;;;;2.00;2.00;;;;;22.49;36.91;100595.09;5077371;27;63310;-68
2023/04/25 05:12:06;;;;;;;;;1.75;1.75;;;;;22.50;37.10;100598.59;5077921;27;65538;-68
2023/04/25 05:14:31;;;;;;;;;3.00;1.50;;;;;22.53;36.63;100609.03;5076390;28;45508;-68
2023/04/25 05:16:58;;;;;;;;;1.25;1.25;;;;;22.51;36.99;100613.66;5081059;27;69154;-68
2023/04/25 05:19:23;;;;;;;;;0.25;0.25;;;;;22.53;36.87;100617.03;5076534;27;45394;-71
2023/04/25 05:21:49;;;;;;;;;1.00;1.00;;;;;22.51;36.73;100627.81;5078965;28;45377;-68
2023/04/25 05:24:14;;;;;;;;;3.00;2.25;;;;;22.52;36.93;100637.53;5080331;27;45477;-68
2023/04/25 05:26:39;;;;;;;;;4.75;4.50;;;;;22.50;36.61;100630.59;5087108;27;45568;-67
2023/04/25 05:29:05;;;;;;;;;6.50;6.00;;;;;22.50;36.76;100642.13;5080378;27;45806;-65
2023/04/25 05:31:31;;;;;;;;;6.50;4.00;;;;;22.47;36.48;100626.38;5080599;28;46518;-66
2023/04/25 05:33:57;;;;;;;;;4.00;4.00;;;;;22.47;36.79;100637.03;5076089;27;45467;-67
2023/04/25 05:36:22;;;;;;;;;4.25;3.00;;;;;22.45;36.78;100643.44;5068822;27;45412;-67
2023/04/25 05:38:47;;;;;;;;;7.50;4.75;;;;;22.44;36.53;100655.94;5077769;27;55646;-68
2023/04/25 05:41:13;;;;;;;;;5.00;4.00;;;;;22.44;36.62;100658.63;5080294;27;46525;-67
2023/04/25 05:43:38;;;;;;;;;6.75;6.00;;;;;22.40;36.73;100664.28;5077913;28;63589;-67
2023/04/25 05:46:03;;;;;;;;;5.75;5.00;;;;;22.42;36.73;100670.38;5077748;27;45262;-67
2023/04/25 05:48:29;;;;;;;;;5.75;4.75;;;;;22.41;36.65;100674.84;5071588;28;59609;-67
2023/04/25 05:50:55;;;;;;;;;9.25;5.00;;;;;22.40;36.49;100681.16;5074203;27;47097;-67
2023/04/25 05:53:21;;;;;;;;;6.50;4.50;;;;;22.39;36.75;100681.28;5072955;28;45799;-67
2023/04/25 05:55:47;;;;;;;;;5.25;5.00;;;;;22.37;36.44;100684.91;5065168;27;45686;-67
2023/04/25 05:58:12;;;;;;;;;5.25;5.00;;;;;22.34;36.62;100684.28;5059011;27;70730;-67
2023/04/25 06:00:38;;;;;;;;;6.25;6.00;;;;;22.26;36.59;100686.69;5075303;27;54883;-67
2023/04/25 06:03:03;;;;;;;;;7.75;5.50;;;;;22.33;36.29;100702.13;5082615;27;46413;-68
2023/04/25 06:05:29;;;;;;;;;6.75;4.25;;;;;22.31;36.09;100698.72;5089611;27;45341;-71
2023/04/25 06:07:54;;;;;;;;;7.25;5.25;;;;;22.31;36.29;100704.06;5083256;27;45488;-69
2023/04/25 06:10:20;;;;;;;;;8.00;5.75;;;;;22.27;36.43;100701.72;5078360;27;45533;-72
2023/04/25 06:12:45;;;;;;;;;6.00;4.25;;;;;22.24;36.10;100702.78;5060586;28;55336;-76
2023/04/25 06:15:11;;;;;;;;;11.50;7.75;;;;;22.22;36.28;100702.03;5062632;27;45674;-75
2023/04/25 06:17:36;;;;;;;;;8.00;6.00;;;;;22.19;36.28;100703.13;5075268;27;45432;-69
2023/04/25 06:20:03;;;;;;;;;5.25;5.25;;;;;22.25;36.21;100714.31;5080158;27;45385;-67
2023/04/25 06:22:28;;;;;;;;;8.75;6.50;;;;;22.18;36.09;100705.91;5078915;27;45228;-72
2023/04/25 06:24:56;;;;;;;;;7.75;5.75;;;;;22.21;36.12;100705.69;5078906;27;45492;-65
2023/04/25 06:27:22;;;;;;;;;7.75;6.00;;;;;22.18;35.83;100704.09;5073353;27;45673;-67
2023/04/25 06:29:48;;;;;;;;;4.25;3.50;;;;;22.15;35.71;100712.34;5061174;28;45497;-70
2023/04/25 06:32:13;;;;;;;;;6.50;4.25;;;;;22.14;35.75;100707.13;5075591;27;45322;-66
2023/04/25 06:34:38;;;;;;;;;8.75;5.50;;;;;22.12;35.94;100709.06;5078004;27;45414;-68
2023/04/25 06:37:04;;;;;;;;;5.75;3.75;;;;;22.06;36.16;100709.50;5076343;27;58682;-68
2023/04/25 06:39:29;;;;;;;;;6.25;5.00;;;;;22.10;35.86;100714.50;5078029;27;46187;-69
2023/04/25 06:41:55;;;;;;;;;5.75;4.25;;;;;22.07;35.98;100708.56;5056404;28;45374;-69
2023/04/25 06:44:22;;;;;;;;;5.00;3.00;;;;;22.09;36.54;100717.28;5060736;28;45350;-69
2023/04/25 06:46:48;;;;;;;;;4.75;4.25;;;;;22.09;36.38;100719.94;5085189;27;45505;-69
2023/04/25 06:49:13;;;;;;;;;5.25;3.00;;;;;22.10;36.69;100732.31;5076432;28;45883;-72
2023/04/25 06:51:38;;;;;;;;;7.50;3.25;;;;;22.07;36.93;100727.22;5063388;28;66258;-69
2023/04/25 06:54:05;;;;;;;;;4.00;3.00;;;;;22.07;36.99;100735.22;5076219;28;47978;-69
2023/04/25 06:56:30;;;;;;;;;5.75;4.00;;;;;22.03;37.18;100733.72;5070376;27;45501;-70
2023/04/25 06:58:56;;;;;;;;;3.50;3.00;;;;;22.08;36.65;100752.88;5081767;27;45746;-70
2023/04/25 07:01:21;;;;;;;;;3.00;2.50;;;;;22.07;37.23;100748.53;5062086;28;45294;-70
2023/04/25 07:03:46;;;;;;;;;6.75;4.25;;;;;22.06;36.74;100750.34;5070434;27;45495;-70
2023/04/25 07:06:12;;;;;;;;;5.25;3.00;;;;;22.05;37.14;100750.47;5077124;28;45465;-70
2023/04/25 07:08:37;;;;;;;;;3.75;3.00;;;;;22.02;37.10;100748.03;5079467;27;50952;-70
2023/04/25 07:11:02;;;;;;;;;3.00;3.00;;;;;22.03;36.88;100752.38;5079636;27;69895;-70
2023/04/25 07:13:28;;;;;;;;;5.75;3.75;;;;;22.06;36.83;100769.00;5073225;27;45473;-70
2023/04/25 07:15:53;;;;;;;;;5.00;4.00;;;;;22.03;37.21;100771.91;5078821;28;68979;-70
2023/04/25 07:18:18;;;;;;;;;4.50;4.00;;;;;22.02;37.17;100764.00;5074597;27;66967;-69
2023/04/25 07:20:44;;;;;;;;;4.50;3.00;;;;;22.00;36.99;100759.63;5078970;28;67385;-70
2023/04/25 07:23:09;;;;;;;;;5.00;3.75;;;;;21.97;37.06;100773.22;5074717;27;52235;-70
2023/04/25 07:25:35;;;;;;;;;4.25;3.25;;;;;21.96;36.94;100771.50;5054843;27;45804;-70
2023/04/25 07:28:00;;;;;;;;;5.25;3.75;;;;;21.97;37.21;100780.34;5074558;27;45561;-69
2023/04/25 07:30:25;;;;;;;;;4.75;4.00;;;;;21.95;36.73;100775.13;5077882;28;69097;-69
2023/04/25 07:32:51;;;;;;;;;5.50;5.00;;;;;21.93;37.16;100786.88;5060865;28;45729;-70
2023/04/25 07:35:17;;;;;;;;;4.50;3.25;;;;;21.93;37.19;100795.69;5053415;28;45495;-70
2023/04/25 07:37:42;;;;;;;;;4.00;4.00;;;;;21.89;37.05;100786.25;5076526;27;46360;-69
2023/04/25 07:40:09;;;;;;;;;2.50;2.25;;;;;21.90;36.90;100795.94;5079277;28;45386;-69
2023/04/25 07:42:34;;;;;;;;;4.50;4.00;;;;;21.91;37.22;100802.97;5057964;27;45232;-69
2023/04/25 07:45:00;;;;;;;;;6.00;5.00;;;;;21.90;37.31;100813.72;5078303;27;45413;-69
2023/04/25 07:47:26;;;;;;;;;4.00;4.00;;;;;21.83;36.76;100805.34;5076573;27;45658;-69
2023/04/25 07:49:51;;;;;;;;;7.25;3.75;;;;;21.84;37.15;100815.03;5070774;28;45298;-69
2023/04/25 07:52:17;;;;;;;;;7.25;4.00;;;;;21.82;37.28;100808.97;5078803;28;45377;-69
2023/04/25 07:54:42;;;;;;;;;6.75;4.00;;;;;21.84;37.11;100816.88;5078566;28;45724;-69
2023/04/25 07:57:07;;;;;;;;;7.25;4.00;;;;;21.83;37.20;100825.81;5067733;27;46994;-69
2023/04/25 07:59:33;;;;;;;;;3.75;3.00;;;;;21.81;36.88;100831.25;5078184;27;45454;-69
2023/04/25 08:01:58;;;;;;;;;5.25;4.00;;;;;21.79;37.36;100828.69;5080803;27;45325;-69
2023/04/25 08:04:25;;;;;;;;;8.50;5.25;;;;;21.80;37.31;100835.72;5071293;28;63896;-70
2023/04/25 08:06:50;;;;;;;;;3.50;3.25;;;;;21.77;37.28;100835.09;5062385;28;48528;-70
2023/04/25 08:09:16;;;;;;;;;4.50;3.00;;;;;21.74;37.25;100835.31;5074148;27;45461;-70
2023/04/25 08:11:42;;;;;;;;;7.00;4.25;;;;;21.74;37.27;100845.97;5068438;27;45201;-69
2023/04/25 08:14:07;;;;;;;;;6.00;4.75;;;;;21.72;37.30;100856.72;5054873;27;45498;-69
2023/04/25 08:16:32;;;;;;;;;6.00;5.00;;;;;21.70;37.19;100856.00;5080090;27;45352;-69
2023/04/25 08:18:59;;;;;;;;;5.00;4.50;;;;;21.70;36.93;100852.50;5077983;27;45521;-69
2023/04/25 08:21:25;;;;;;;;;5.00;4.00;;;;;21.70;36.86;100863.97;5051364;28;45194;-69
2023/04/25 08:23:50;;;;;;;;;5.00;4.00;;;;;21.70;36.72;100868.47;5073068;28;45381;-69
2023/04/25 08:26:16;;;;;;;;;5.00;5.00;;;;;21.69;37.28;100872.09;5074209;27;75943;-69
2023/04/25 08:28:41;;;;;;;;;4.75;4.00;;;;;21.69;36.98;100880.06;5069956;27;62512;-70
2023/04/25 08:31:06;;;;;;;;;5.00;4.50;;;;;21.68;37.06;100873.06;5066143;28;68651;-69
2023/04/25 08:33:32;;;;;;;;;5.50;4.50;;;;;21.64;36.77;100875.09;5048964;28;64160;-69
2023/04/25 08:35:58;;;;;;;;;5.25;4.25;;;;;21.65;37.07;100882.09;5049135;27;45521;-69
2023/04/25 08:38:23;;;;;;;;;4.25;3.50;;;;;21.63;36.70;100888.50;5077464;27;68364;-69
2023/04/25 08:40:51;;;;;;;;;6.75;5.00;;;;;21.61;36.60;100880.63;5079096;27;63249;-69
2023/04/25 08:43:19;;;;;;;;;5.50;4.00;;;;;21.61;37.00;100894.78;5076555;27;53354;-69
2023/04/25 08:45:46;;;;;;;;;6.75;4.75;;;;;21.63;37.04;100899.16;5082306;27;45337;-69
2023/04/25 08:48:13;;;;;;;;;8.50;5.00;;;;;21.60;37.30;100897.56;5069617;27;45213;-69
2023/04/25 08:50:45;;;;;;;;;5.00;5.00;;;;;21.59;36.70;100898.53;5065545;27;45424;-69
2023/04/25 08:53:16;;;;;;;;;5.00;4.00;;;;;21.58;37.26;100907.47;5070186;27;45391;-69
2023/04/25 08:55:41;;;;;;;;;4.50;4.00;;;;;21.56;36.88;100902.25;5078346;27;45535;-69
2023/04/25 08:58:07;;;;;;;;;5.75;4.50;;;;;21.56;36.58;100914.72;5078885;28;45446;-69
2023/04/25 09:00:32;;;;;;;;;5.00;4.75;;;;;21.56;37.25;100912.06;5063932;27;69945;-69
2023/04/25 09:02:58;;;;;;;;;5.75;5.75;;;;;21.55;37.02;100916.53;5079359;27;57550;-69
2023/04/25 09:05:24;;;;;;;;;6.25;4.75;;;;;21.56;36.85;100928.88;5079267;27;47358;-69
2023/04/25 09:07:50;;;;;;;;;9.75;5.00;;;;;21.54;36.68;100930.81;5078643;27;45658;-69
2023/04/25 09:10:15;;;;;;;;;4.25;4.25;;;;;21.54;37.07;100921.97;5080408;27;61826;-69
2023/04/25 09:12:40;;;;;;;;;4.50;4.50;;;;;21.53;37.21;100934.44;5058010;28;74847;-69
2023/04/25 09:15:11;;;;;;;;;7.00;5.00;;;;;21.50;36.71;100928.47;5061340;27;47803;-69
2023/04/25 09:17:40;;;;;;;;;4.50;4.00;;;;;21.53;36.60;100944.22;5059061;28;45946;-69
2023/04/25 09:20:10;;;;;;;;;5.00;3.75;;;;;21.53;36.82;100947.75;5078301;28;45315;-69
2023/04/25 09:22:37;;;;;;;;;8.50;4.25;;;;;21.50;36.59;100950.63;5075244;28;45541;-69
2023/04/25 09:25:07;;;;;;;;;5.25;4.00;;;;;21.51;36.80;100960.31;5071101;28;45409;-69
2023/04/25 09:27:32;;;;;;;;;4.00;4.00;;;;;21.50;37.06;100958.63;5074668;28;46568;-69
2023/04/25 09:30:02;;;;;;;;;4.00;4.00;;;;;21.50;36.89;100957.78;5075622;28;58723;-69
2023/04/25 09:32:27;;;;;;;;;4.00;4.00;;;;;21.49;36.81;100964.88;5065509;27;45411;-69
2023/04/25 09:34:57;;;;;;;;;4.25;4.00;;;;;21.49;36.84;100974.69;5076747;27;45393;-69
2023/04/25 09:37:30;;;;;;;;;4.25;3.00;;;;;21.47;36.75;100972.13;5052221;28;45937;-69
2023/04/25 09:40:02;;;;;;;;;5.75;4.00;;;;;21.48;36.56;100972.97;5064113;28;45359;-69
2023/04/25 09:42:28;;;;;;;;;5.00;4.50;;;;;21.44;36.69;100969.66;5054219;27;45490;-69
2023/04/25 09:44:55;;;;;;;;;4.00;4.00;;;;;21.46;36.53;100981.09;5074511;27;47539;-69
2023/04/25 09:47:23;;;;;;;;;5.25;4.00;;;;;21.43;37.07;100975.94;5072511;27;45252;-69
2023/04/25 09:49:49;;;;;;;;;3.50;3.50;;;;;21.45;36.71;100981.16;5080927;27;45476;-69
2023/04/25 09:52:20;;;;;;;;;6.50;4.75;;;;;21.43;36.66;100973.28;5070493;27;45503;-69
2023/04/25 09:54:46;;;;;;;;;4.50;3.50;;;;;21.42;36.57;100971.56;5075561;27;45372;-69
2023/04/25 09:57:17;;;;;;;;;6.50;4.00;;;;;21.45;36.73;100973.19;5080188;27;45446;-69
2023/04/25 09:59:50;;;;;;;;;4.00;4.00;;;;;21.43;36.56;100982.13;5078966;28;45424;-69
2023/04/25 10:02:20;;;;;;;;;6.25;5.75;;;;;21.43;36.57;100978.59;5067690;27;45339;-69
2023/04/25 10:04:48;;;;;;;;;4.00;4.00;;;;;21.42;36.60;100985.75;5062085;28;47314;-69
2023/04/25 10:07:14;;;;;;;;;6.50;4.75;;;;;21.43;37.05;100991.91;5078253;28;45564;-69
2023/04/25 10:09:40;;;;;;;;;6.00;3.00;;;;;21.39;36.56;100987.78;5073404;27;45516;-69
2023/04/25 10:12:07;;;;;;;;;3.25;3.00;;;;;21.41;37.03;100992.03;5062956;27;45493;-69
2023/04/25 10:14:33;;;;;;;;;5.25;5.25;;;;;21.42;36.46;100987.53;5079255;27;47266;-69
2023/04/25 10:16:59;;;;;;;;;9.75;4.25;;;;;21.42;37.11;100996.41;5080624;27;45847;-69
2023/04/25 10:19:26;;;;;;;;;5.50;5.00;;;;;21.41;36.95;100993.84;5074735;28;45446;-69
2023/04/25 10:21:55;;;;;;;;;6.50;3.50;;;;;21.40;36.53;100998.28;5080491;27;45536;-69
2023/04/25 10:24:21;;;;;;;;;5.00;5.00;;;;;21.39;36.57;100998.44;5072655;28;46232;-69
2023/04/25 10:26:48;;;;;;;;;5.00;3.75;;;;;21.42;36.70;100992.88;5079358;27;45315;-69
2023/04/25 10:29:22;;;;;;;;;3.00;3.00;;;;;21.37;37.04;100995.88;5068868;27;45342;-69
2023/04/25 10:31:47;;;;;;;;;3.75;3.75;;;;;21.40;37.03;100994.78;5062846;28;45594;-69
2023/04/25 10:34:13;;;;;;;;;5.75;4.00;;;;;21.38;36.50;100996.69;5078797;27;45343;-69
2023/04/25 10:36:39;;;;;;;;;4.50;3.00;;;;;21.36;36.50;100993.31;5071249;27;45445;-69
2023/04/25 10:39:07;;;;;;;;;5.50;3.50;;;;;21.40;36.98;101008.94;5076926;28;45405;-69
2023/04/25 10:41:45;;;;;;;;;3.25;3.25;;;;;21.36;36.67;100993.31;5061299;28;45706;-70
2023/04/25 10:44:11;;;;;;;;;4.25;4.25;;;;;21.34;36.39;100992.56;5073069;27;46578;-69
2023/04/25 10:46:37;;;;;;;;;3.00;3.00;;;;;21.35;36.94;100988.91;5062918;28;48497;-69
2023/04/25 10:49:02;;;;;;;;;4.00;4.00;;;;;21.36;36.98;100996.81;5077000;27;45380;-69
2023/04/25 10:51:32;;;;;;;;;3.00;3.00;;;;;21.37;36.77;101009.16;5080217;27;45306;-69
2023/04/25 10:54:03;;;;;;;;;4.50;4.50;;;;;21.32;36.95;101003.31;5053085;28;46696;-70
2023/04/25 10:56:33;;;;;;;;;7.00;4.75;;;;;21.38;36.88;101010.84;5049657;28;45737;-69
2023/04/25 10:59:13;;;;;;;;;5.50;4.75;;;;;21.38;36.95;101018.00;5075777;28;45458;-69
2023/04/25 11:01:40;;;;;;;;;4.75;3.25;;;;;21.38;36.90;101010.00;5046629;28;45396;-69
2023/04/25 11:04:39;;;;;;;;;6.00;5.25;;;;;21.31;36.55;101009.56;5060696;28;47559;-69
2023/04/25 11:07:22;;;;;;;;;6.75;4.00;;;;;21.36;36.60;101015.44;5068586;27;45461;-69
2023/04/25 11:09:48;;;;;;;;;4.75;4.00;;;;;21.35;36.45;101020.88;5053492;28;45414;-70
2023/04/25 11:12:14;;;;;;;;;4.00;4.00;;;;;21.31;36.86;101016.72;5062146;28;45292;-70
2023/04/25 11:14:40;;;;;;;;;4.75;3.00;;;;;21.31;36.91;101014.06;5076720;28;47984;-70
2023/04/25 11:17:06;;;;;;;;;5.50;4.75;;;;;21.31;36.86;101011.38;5079082;28;45402;-69
2023/04/25 11:19:31;;;;;;;;;9.00;4.50;;;;;21.36;36.65;101025.25;5059192;28;45385;-69